Time;durP1;ratioP1;P1;durP2;ratioP2;P2;SDS_P1;SDS_P2;PMS_P1;PMS_P2;Temp;Humidity;BMP_temperature;BMP_pressure;BME280_temperature;BME280_humidity;BME280_pressure;Samples;Min_cycle;Max_cycle;Signal;HPM_P1;HPM_P2
2021/05/30 06:18:15;;;;;;;2.60;2.30;;;13.70;99.90;;;;;;4252834;27;20335;-66
2021/05/30 06:20:17;;;;;;;2.13;1.73;;;15.10;99.90;;;;;;4236898;27;20055;-66
2021/05/30 06:22:18;;;;;;;1.70;1.60;;;15.30;99.90;;;;;;4237765;27;20092;-63
2021/05/30 06:24:19;;;;;;;3.13;2.07;;;15.50;99.90;;;;;;4236679;27;20036;-69
2021/05/30 06:26:21;;;;;;;2.10;1.90;;;15.80;99.90;;;;;;4238730;28;20036;-63
2021/05/30 06:28:22;;;;;;;8.10;1.90;;;15.80;99.90;;;;;;4237240;28;20423;-69
2021/05/30 06:30:24;;;;;;;6.50;2.00;;;15.70;99.90;;;;;;4238010;28;20074;-66
2021/05/30 06:32:25;;;;;;;2.33;1.67;;;15.20;99.90;;;;;;4237061;28;20024;-70
2021/05/30 06:34:26;;;;;;;2.20;1.53;;;15.10;99.90;;;;;;4236735;28;20039;-68
2021/05/30 06:36:28;;;;;;;2.40;1.57;;;15.00;99.90;;;;;;4236831;28;20047;-69
2021/05/30 06:38:29;;;;;;;4.00;1.97;;;15.30;99.90;;;;;;4238176;28;20023;-71
2021/05/30 06:40:30;;;;;;;1.58;1.40;;;15.30;99.90;;;;;;4236734;28;20031;-69
2021/05/30 06:42:32;;;;;;;1.57;1.47;;;15.40;99.90;;;;;;4238063;28;20043;-69
2021/05/30 06:44:33;;;;;;;1.60;1.50;;;15.40;99.90;;;;;;4236583;27;20559;-67
2021/05/30 06:46:35;;;;;;;2.55;1.60;;;15.30;99.90;;;;;;4237888;28;20474;-69
2021/05/30 06:48:36;;;;;;;1.73;1.47;;;15.60;99.90;;;;;;4238159;28;20425;-65
2021/05/30 06:50:37;;;;;;;1.53;1.43;;;15.60;99.90;;;;;;4236748;28;20104;-63
2021/05/30 06:52:39;;;;;;;1.20;1.10;;;15.50;99.90;;;;;;4237365;28;20583;-61
2021/05/30 06:54:40;;;;;;;1.30;1.20;;;15.50;99.90;;;;;;4236049;27;20043;-64
2021/05/30 06:56:41;;;;;;;1.33;1.10;;;15.70;99.90;;;;;;4238077;28;20047;-66
2021/05/30 06:58:43;;;;;;;2.05;0.90;;;16.00;99.90;;;;;;4236618;28;20514;-66
2021/05/30 07:00:44;;;;;;;2.40;1.40;;;16.20;99.90;;;;;;4237822;28;20408;-65
2021/05/30 07:02:45;;;;;;;7.55;5.63;;;16.00;99.90;;;;;;4234953;28;20040;-65
2021/05/30 07:04:46;;;;;;;16.23;6.43;;;16.30;99.90;;;;;;4235429;28;20424;-66
2021/05/30 07:06:48;;;;;;;1.30;0.88;;;16.40;99.90;;;;;;4236204;28;20031;-65
2021/05/30 07:08:50;;;;;;;1.48;1.00;;;16.50;99.90;;;;;;4237546;28;20027;-69
2021/05/30 07:10:52;;;;;;;4.15;1.45;;;16.80;99.90;;;;;;4236563;28;20096;-62
2021/05/30 07:12:53;;;;;;;0.60;0.60;;;17.10;99.90;;;;;;4237100;28;20023;-67
2021/05/30 07:14:55;;;;;;;0.60;0.60;;;17.30;99.90;;;;;;4236569;28;20577;-68
2021/05/30 07:16:56;;;;;;;2.17;0.57;;;17.00;99.90;;;;;;4237465;28;20093;-63
2021/05/30 07:18:57;;;;;;;0.60;0.60;;;17.20;99.90;;;;;;4224216;27;20069;-70
2021/05/30 07:20:59;;;;;;;1.55;0.47;;;17.00;99.90;;;;;;4225605;28;20579;-65
2021/05/30 07:23:00;;;;;;;0.47;0.47;;;17.00;99.90;;;;;;4223855;28;20481;-63
2021/05/30 07:25:03;;;;;;;0.50;0.40;;;17.20;99.90;;;;;;4224263;28;20087;-62
2021/05/30 07:27:05;;;;;;;0.75;0.70;;;17.30;99.90;;;;;;4226642;28;20035;-62
2021/05/30 07:29:07;;;;;;;2.92;0.50;;;17.50;99.90;;;;;;4224929;28;20092;-61
2021/05/30 07:31:08;;;;;;;0.40;0.38;;;17.60;99.00;;;;;;4226135;28;20437;-64
2021/05/30 07:33:09;;;;;;;0.73;0.73;;;17.40;99.10;;;;;;4224023;28;20040;-62
2021/05/30 07:35:10;;;;;;;0.85;0.50;;;17.50;99.10;;;;;;4225509;28;20056;-65
2021/05/30 07:37:12;;;;;;;0.95;0.52;;;17.50;98.60;;;;;;4224002;28;20059;-65
2021/05/30 07:39:13;;;;;;;0.38;0.38;;;16.90;98.40;;;;;;4225649;28;20436;-61
2021/05/30 07:41:14;;;;;;;0.70;0.30;;;16.70;99.80;;;;;;4224296;28;20044;-65
2021/05/30 07:43:15;;;;;;;4.63;1.20;;;16.40;99.50;;;;;;4226003;28;20039;-65
2021/05/30 07:45:17;;;;;;;1.27;0.98;;;16.30;99.30;;;;;;4224633;28;20028;-59
2021/05/30 07:47:18;;;;;;;1.00;0.40;;;16.10;99.10;;;;;;4224346;28;20035;-69
2021/05/30 07:49:19;;;;;;;0.63;0.47;;;15.90;99.20;;;;;;4222412;28;20084;-60
2021/05/30 07:51:21;;;;;;;0.50;0.50;;;16.00;99.20;;;;;;4223951;28;20437;-61
2021/05/30 07:53:22;;;;;;;3.67;0.60;;;16.30;99.00;;;;;;4224699;28;20024;-63
2021/05/30 07:55:23;;;;;;;0.40;0.40;;;16.40;99.30;;;;;;4222343;28;20093;-62
2021/05/30 07:57:24;;;;;;;0.73;0.73;;;16.40;98.80;;;;;;4225046;28;20372;-67
2021/05/30 07:59:25;;;;;;;2.08;0.80;;;16.30;98.70;;;;;;4222894;28;20482;-62
2021/05/30 08:01:27;;;;;;;3.03;1.88;;;16.10;99.10;;;;;;4219058;28;20032;-64
2021/05/30 08:03:28;;;;;;;0.60;0.60;;;16.00;99.50;;;;;;4224263;28;20028;-66
2021/05/30 08:05:29;;;;;;;0.70;0.70;;;15.80;99.90;;;;;;4225646;28;20040;-68
2021/05/30 08:07:30;;;;;;;1.73;0.75;;;15.50;99.90;;;;;;4223503;28;20056;-71
2021/05/30 08:09:31;;;;;;;1.65;0.70;;;15.50;99.90;;;;;;4224511;28;20086;-67
2021/05/30 08:11:33;;;;;;;2.58;1.02;;;15.40;99.90;;;;;;4223743;28;20363;-64
2021/05/30 08:13:34;;;;;;;1.67;1.25;;;15.40;99.90;;;;;;4224651;28;20096;-64
2021/05/30 08:15:35;;;;;;;0.75;0.60;;;15.40;99.90;;;;;;4222986;28;20085;-63
2021/05/30 08:17:38;;;;;;;0.50;0.40;;;15.40;99.90;;;;;;4224879;28;20473;-64
2021/05/30 08:19:39;;;;;;;0.88;0.80;;;15.40;99.90;;;;;;4223416;28;20031;-63
2021/05/30 08:21:42;;;;;;;1.50;1.40;;;15.50;99.90;;;;;;4223758;27;20076;-67
2021/05/30 08:23:46;;;;;;;1.02;0.50;;;15.60;99.90;;;;;;4223862;28;20073;-66
2021/05/30 08:25:47;;;;;;;0.88;0.80;;;15.70;99.90;;;;;;4223787;28;20096;-65
2021/05/30 08:27:49;;;;;;;2.15;1.80;;;15.70;99.90;;;;;;4223886;28;20088;-65
2021/05/30 08:29:50;;;;;;;1.67;1.40;;;15.60;99.90;;;;;;4222505;28;20570;-66
2021/05/30 08:31:52;;;;;;;1.30;1.20;;;15.60;99.90;;;;;;4224567;28;20081;-65
2021/05/30 08:33:53;;;;;;;1.83;0.30;;;15.50;99.90;;;;;;4223285;28;20032;-67
2021/05/30 08:35:54;;;;;;;2.63;1.63;;;15.40;99.90;;;;;;4224034;28;20035;-63
2021/05/30 08:37:56;;;;;;;1.88;1.65;;;15.40;99.90;;;;;;4222553;28;20089;-65
2021/05/30 08:39:57;;;;;;;2.75;1.80;;;15.40;99.90;;;;;;4224020;28;20039;-63
2021/05/30 08:41:58;;;;;;;0.68;0.50;;;15.50;99.90;;;;;;4223320;28;20032;-66
2021/05/30 08:44:00;;;;;;;0.82;0.60;;;15.30;99.90;;;;;;4224762;28;20065;-65
2021/05/30 08:46:01;;;;;;;3.90;1.75;;;15.10;99.90;;;;;;4223083;28;20035;-67
2021/05/30 08:48:02;;;;;;;6.07;1.45;;;14.80;99.90;;;;;;4224393;28;20543;-64
2021/05/30 08:50:04;;;;;;;3.10;1.50;;;14.80;99.90;;;;;;4222731;28;20048;-65
2021/05/30 08:52:07;;;;;;;1.35;1.23;;;14.70;99.90;;;;;;4225010;28;20035;-65
2021/05/30 08:54:16;;;;;;;0.77;0.50;;;14.80;99.90;;;;;;4223248;28;20077;-66
2021/05/30 08:56:17;;;;;;;0.65;0.55;;;14.70;99.90;;;;;;4221745;28;20044;-64
2021/05/30 08:58:18;;;;;;;1.77;0.40;;;14.60;99.90;;;;;;4223164;28;20051;-65
2021/05/30 09:00:31;;;;;;;0.40;0.35;;;14.50;99.90;;;;;;4222892;28;20031;-64
2021/05/30 09:02:32;;;;;;;1.90;1.20;;;14.50;99.90;;;;;;4223281;28;20027;-63
2021/05/30 09:04:38;;;;;;;2.95;1.27;;;14.70;99.90;;;;;;4223270;28;20032;-64
2021/05/30 09:06:43;;;;;;;2.20;0.70;;;14.90;99.90;;;;;;4223352;28;20096;-67
2021/05/30 09:08:44;;;;;;;1.93;1.33;;;14.90;99.90;;;;;;4223007;28;20111;-64
2021/05/30 09:10:53;;;;;;;3.85;0.90;;;15.00;99.90;;;;;;4223397;28;20032;-63
2021/05/30 09:13:16;;;;;;;3.27;0.80;;;14.80;99.90;;;;;;4223023;28;20467;-66
2021/05/30 09:15:23;;;;;;;3.43;0.93;;;14.70;99.90;;;;;;4222328;28;20039;-63
2021/05/30 09:17:25;;;;;;;15.90;5.57;;;14.60;99.90;;;;;;4221849;28;20112;-64
2021/05/30 09:19:54;;;;;;;2.27;1.10;;;14.80;99.90;;;;;;4223624;28;20108;-64
2021/05/30 09:22:26;;;;;;;1.07;0.97;;;14.80;99.90;;;;;;4223345;28;20076;-64
2021/05/30 09:24:27;;;;;;;1.00;0.70;;;14.80;99.90;;;;;;4215668;28;20744;-63
2021/05/30 09:26:28;;;;;;;0.70;0.70;;;14.80;99.90;;;;;;4223920;28;20539;-65
2021/05/30 09:28:29;;;;;;;2.73;1.53;;;14.80;99.90;;;;;;4222976;28;20068;-62
2021/05/30 09:30:34;;;;;;;0.37;0.37;;;14.90;99.90;;;;;;4222951;28;20085;-63
2021/05/30 09:32:56;;;;;;;3.70;0.50;;;14.90;99.90;;;;;;4222738;28;20077;-63
2021/05/30 09:35:03;;;;;;;2.23;1.10;;;15.00;99.90;;;;;;4222354;28;20032;-63
2021/05/30 09:37:05;;;;;;;1.13;0.80;;;15.00;99.90;;;;;;4222326;28;20036;-63
2021/05/30 09:39:06;;;;;;;0.50;0.50;;;15.10;99.90;;;;;;4223098;28;20536;-62
2021/05/30 09:41:10;;;;;;;1.10;0.73;;;15.10;99.90;;;;;;4222659;28;20471;-64
2021/05/30 09:43:12;;;;;;;2.60;1.80;;;15.20;99.90;;;;;;4222911;28;20024;-64
2021/05/30 09:45:13;;;;;;;1.63;1.10;;;15.10;99.90;;;;;;4223079;28;20028;-63
2021/05/30 09:47:44;;;;;;;2.17;1.87;;;15.20;99.90;;;;;;4222613;28;20412;-66
2021/05/30 09:49:54;;;;;;;4.22;2.50;;;15.10;99.90;;;;;;4221948;28;20108;-63
2021/05/30 09:51:55;;;;;;;3.67;3.00;;;15.00;99.90;;;;;;4222346;28;20073;-62
2021/05/30 09:54:07;;;;;;;11.93;3.90;;;15.00;99.90;;;;;;4223296;28;20016;-65
2021/05/30 09:56:30;;;;;;;2.73;0.80;;;15.00;99.90;;;;;;4222660;28;20040;-63
2021/05/30 09:58:31;;;;;;;0.40;0.40;;;15.00;99.90;;;;;;4220223;28;20055;-65
2021/05/30 10:00:33;;;;;;;1.00;0.40;;;15.00;99.90;;;;;;4222674;28;20425;-63
2021/05/30 10:02:35;;;;;;;0.30;0.30;;;15.00;99.90;;;;;;4222676;28;20020;-64
2021/05/30 10:04:36;;;;;;;2.17;0.67;;;15.10;99.90;;;;;;4222221;28;20111;-66
2021/05/30 10:06:38;;;;;;;3.97;0.97;;;15.10;99.90;;;;;;4223376;28;20031;-65
2021/05/30 10:08:39;;;;;;;3.63;0.53;;;15.20;99.90;;;;;;4219682;28;20108;-65
2021/05/30 10:10:40;;;;;;;0.40;0.40;;;15.20;99.90;;;;;;4221429;28;20502;-62
2021/05/30 10:12:43;;;;;;;0.57;0.40;;;15.30;99.90;;;;;;4221769;28;20116;-64
2021/05/30 10:14:44;;;;;;;1.73;0.93;;;15.20;99.90;;;;;;4223151;28;20036;-63
2021/05/30 10:16:46;;;;;;;1.50;1.00;;;15.30;99.90;;;;;;4219773;28;20055;-65
2021/05/30 10:18:52;;;;;;;2.10;1.60;;;15.30;99.90;;;;;;4223593;28;20036;-66
2021/05/30 10:20:54;;;;;;;3.10;1.63;;;15.30;99.90;;;;;;4221874;28;20031;-66
2021/05/30 10:22:58;;;;;;;2.53;1.23;;;15.30;99.90;;;;;;4222590;28;20032;-64
2021/05/30 10:24:59;;;;;;;1.13;0.70;;;15.30;99.90;;;;;;4222095;28;20027;-68
2021/05/30 10:27:24;;;;;;;4.37;1.50;;;15.30;99.90;;;;;;4222147;28;20468;-64
2021/05/30 10:29:25;;;;;;;1.50;0.90;;;15.40;99.90;;;;;;4205623;28;20077;-63
2021/05/30 10:31:29;;;;;;;1.83;0.67;;;15.40;99.90;;;;;;4206736;28;20040;-64
2021/05/30 10:33:30;;;;;;;1.17;1.00;;;15.30;99.90;;;;;;4204636;28;20093;-64
2021/05/30 10:35:31;;;;;;;2.05;1.35;;;15.30;99.90;;;;;;4206090;28;20036;-63
2021/05/30 10:37:46;;;;;;;1.27;1.07;;;15.30;99.90;;;;;;4205101;28;20113;-64
2021/05/30 10:39:47;;;;;;;1.37;0.87;;;15.20;99.90;;;;;;4206614;28;20088;-64
2021/05/30 10:42:17;;;;;;;1.43;0.90;;;15.10;99.90;;;;;;4205690;28;20108;-64
2021/05/30 10:44:48;;;;;;;;;;;15.10;99.90;;;;;;4206033;28;20036;-64
2021/05/30 10:46:50;;;;;;;2.60;1.30;;;15.10;99.90;;;;;;4187665;28;19958;-65
2021/05/30 10:49:17;;;;;;;8.80;2.00;;;15.10;99.90;;;;;;4206556;28;20044;-65
2021/05/30 10:53:41;;;;;;;1.33;1.10;;;14.90;99.90;;;;;;4207296;28;20445;-63
2021/05/30 10:55:42;;;;;;;11.40;7.10;;;14.90;99.90;;;;;;4209026;28;20089;-63
2021/05/30 10:57:46;;;;;;;3.80;2.97;;;14.90;99.90;;;;;;4209087;28;20169;-64
2021/05/30 10:59:47;;;;;;;3.20;1.47;;;15.00;99.90;;;;;;4207664;28;20048;-64
2021/05/30 11:01:50;;;;;;;1.27;1.10;;;15.00;99.90;;;;;;4209696;28;20036;-65
2021/05/30 11:03:52;;;;;;;1.83;0.70;;;15.00;99.90;;;;;;4206189;28;20434;-65
2021/05/30 11:05:57;;;;;;;3.53;1.43;;;15.00;99.90;;;;;;4207845;28;20569;-62
2021/05/30 11:07:58;;;;;;;3.47;1.10;;;14.90;99.90;;;;;;4208088;28;20118;-64
2021/05/30 11:10:02;;;;;;;1.57;1.00;;;14.90;99.90;;;;;;4208981;28;20036;-64
2021/05/30 11:12:30;;;;;;;1.37;1.10;;;15.00;99.90;;;;;;4208591;28;20040;-63
2021/05/30 11:14:31;;;;;;;1.93;1.40;;;14.90;99.90;;;;;;4207559;28;20053;-63
2021/05/30 11:16:34;;;;;;;14.00;1.80;;;15.10;99.90;;;;;;4207832;28;20103;-62
2021/05/30 11:18:38;;;;;;;31.53;2.90;;;15.00;99.90;;;;;;4208244;28;20064;-64
2021/05/30 11:20:42;;;;;;;11.50;1.63;;;15.10;99.90;;;;;;4207820;28;20048;-64
2021/05/30 11:22:55;;;;;;;1.80;0.70;;;15.20;99.90;;;;;;4207679;28;20078;-61
2021/05/30 11:24:59;;;;;;;16.77;2.93;;;15.40;99.90;;;;;;4207747;28;20487;-63
2021/05/30 11:27:03;;;;;;;2.15;0.93;;;15.30;99.90;;;;;;4208557;28;20062;-64
2021/05/30 11:29:06;;;;;;;3.47;1.50;;;15.30;99.90;;;;;;4208009;28;20024;-63
2021/05/30 11:31:08;;;;;;;4.70;1.47;;;15.30;99.90;;;;;;4207988;28;20069;-63
2021/05/30 11:33:21;;;;;;;1.67;1.40;;;15.20;99.90;;;;;;4207747;28;20040;-63
2021/05/30 11:35:22;;;;;;;1.77;1.40;;;15.30;99.90;;;;;;4207825;28;20058;-63
2021/05/30 11:37:23;;;;;;;1.37;1.00;;;15.40;99.90;;;;;;4207978;28;20478;-63
2021/05/30 11:39:24;;;;;;;1.85;1.00;;;15.60;99.90;;;;;;4207319;28;20827;-63
2021/05/30 11:41:37;;;;;;;3.08;1.70;;;15.80;99.90;;;;;;4208777;28;20058;-63
2021/05/30 11:43:39;;;;;;;0.77;0.70;;;15.70;99.90;;;;;;4206930;28;20373;-65
2021/05/30 11:45:43;;;;;;;1.50;1.00;;;15.60;99.90;;;;;;4208250;28;20035;-64
2021/05/30 11:48:03;;;;;;;1.60;0.57;;;15.70;99.90;;;;;;4206843;28;20047;-63
2021/05/30 11:50:05;;;;;;;;;;;15.70;99.90;;;;;;4209160;28;20032;-65
2021/05/30 11:52:06;;;;;;;1.10;0.60;;;15.80;99.90;;;;;;4207271;28;19908;-64
2021/05/30 11:54:07;;;;;;;1.60;1.17;;;15.80;99.90;;;;;;4208675;28;20089;-62
2021/05/30 11:56:09;;;;;;;2.42;1.15;;;15.80;99.90;;;;;;4207937;28;20020;-64
2021/05/30 11:58:10;;;;;;;1.60;1.00;;;15.90;99.90;;;;;;4208124;28;20075;-64
2021/05/30 12:00:12;;;;;;;3.45;1.40;;;15.90;99.90;;;;;;4206912;28;20048;-64
2021/05/30 12:02:38;;;;;;;1.77;0.80;;;16.00;99.90;;;;;;4208479;28;20547;-63
2021/05/30 12:04:42;;;;;;;0.90;0.40;;;16.20;99.90;;;;;;4207292;28;20032;-66
2021/05/30 12:06:43;;;;;;;0.82;0.40;;;16.30;99.90;;;;;;4211625;28;20035;-64
2021/05/30 12:08:54;;;;;;;1.25;0.65;;;16.30;99.90;;;;;;4204635;28;20125;-63
2021/05/30 12:11:00;;;;;;;0.82;0.30;;;16.30;99.20;;;;;;4223260;28;20110;-63
2021/05/30 12:13:01;;;;;;;0.52;0.50;;;16.30;99.10;;;;;;4223696;28;20257;-65
2021/05/30 12:15:08;;;;;;;1.77;0.63;;;16.30;99.00;;;;;;4224255;28;20084;-64
2021/05/30 12:17:10;;;;;;;1.30;0.80;;;16.20;99.30;;;;;;4223788;28;20047;-61
2021/05/30 12:19:11;;;;;;;3.85;0.93;;;16.30;99.60;;;;;;4224738;28;20040;-64
2021/05/30 12:21:13;;;;;;;2.08;0.75;;;16.30;99.80;;;;;;4218748;28;20441;-61
2021/05/30 12:23:19;;;;;;;0.80;0.52;;;16.30;99.50;;;;;;4207637;28;20418;-62
2021/05/30 12:25:20;;;;;;;1.02;0.73;;;16.40;99.20;;;;;;4206389;28;20040;-61
2021/05/30 12:27:23;;;;;;;2.95;1.20;;;16.50;99.30;;;;;;4206868;28;20040;-61
2021/05/30 12:29:25;;;;;;;3.50;1.10;;;16.60;99.00;;;;;;4206903;28;20012;-62
2021/05/30 12:31:27;;;;;;;0.32;0.25;;;16.60;98.60;;;;;;4206981;28;20020;-62
2021/05/30 12:33:28;;;;;;;1.02;0.50;;;16.70;97.90;;;;;;4212592;28;20040;-62
2021/05/30 12:35:53;;;;;;;2.35;0.70;;;16.70;97.80;;;;;;4223496;28;20371;-62
2021/05/30 12:37:57;;;;;;;0.38;0.35;;;16.90;97.50;;;;;;4223273;28;20663;-63
2021/05/30 12:40:00;;;;;;;1.42;0.60;;;17.00;97.40;;;;;;4224288;28;20032;-63
2021/05/30 12:42:08;;;;;;;1.55;0.70;;;16.90;97.70;;;;;;4224276;28;20031;-62
2021/05/30 12:44:17;;;;;;;2.22;1.00;;;17.00;98.00;;;;;;4223560;28;20069;-65
2021/05/30 12:46:18;;;;;;;2.05;0.57;;;16.90;98.30;;;;;;4222463;28;20429;-64
2021/05/30 12:48:19;;;;;;;1.13;0.95;;;16.90;98.70;;;;;;4223591;28;20109;-62
2021/05/30 12:50:20;;;;;;;5.32;1.50;;;16.90;98.90;;;;;;4224439;28;20057;-63
2021/05/30 12:52:22;;;;;;;2.17;1.25;;;16.90;99.00;;;;;;4222680;28;20093;-63
2021/05/30 12:54:24;;;;;;;1.30;1.05;;;16.90;99.20;;;;;;4224166;28;20027;-64
2021/05/30 12:56:29;;;;;;;1.20;0.90;;;16.90;99.40;;;;;;4223482;28;20429;-62
2021/05/30 12:58:30;;;;;;;3.65;1.00;;;17.10;99.20;;;;;;4224035;28;20108;-61
2021/05/30 13:00:35;;;;;;;1.48;1.10;;;17.20;98.70;;;;;;4222831;28;20031;-64
2021/05/30 13:02:37;;;;;;;0.70;0.50;;;17.20;98.50;;;;;;4224410;28;20463;-61
2021/05/30 13:04:43;;;;;;;0.50;0.50;;;17.20;97.90;;;;;;4222047;28;20093;-62
2021/05/30 13:06:58;;;;;;;0.30;0.30;;;17.10;96.50;;;;;;4223746;28;20096;-63
2021/05/30 13:09:00;;;;;;;0.93;0.90;;;17.10;95.80;;;;;;4220951;28;20020;-62
2021/05/30 13:11:06;;;;;;;0.90;0.68;;;17.00;96.40;;;;;;4213166;28;20036;-62
2021/05/30 13:13:26;;;;;;;0.80;0.70;;;16.90;96.10;;;;;;4222952;28;20064;-62
2021/05/30 13:15:27;;;;;;;0.88;0.50;;;16.90;95.20;;;;;;4223529;28;20092;-62
2021/05/30 13:17:28;;;;;;;1.38;1.00;;;16.90;96.10;;;;;;4219975;28;21182;-63
2021/05/30 13:19:30;;;;;;;1.13;1.02;;;16.80;96.10;;;;;;4223618;28;20031;-63
2021/05/30 13:21:32;;;;;;;1.10;0.80;;;16.90;96.20;;;;;;4222563;28;20109;-64
2021/05/30 13:23:33;;;;;;;2.80;0.40;;;17.00;96.30;;;;;;4217641;28;20041;-63
2021/05/30 13:25:40;;;;;;;1.75;0.68;;;17.10;96.00;;;;;;4206885;28;20073;-61
2021/05/30 13:27:41;;;;;;;0.98;0.50;;;17.10;94.50;;;;;;4206382;28;20028;-64
2021/05/30 13:29:43;;;;;;;0.85;0.50;;;17.00;94.70;;;;;;4205830;28;21018;-64
2021/05/30 13:31:44;;;;;;;2.58;0.50;;;16.90;94.00;;;;;;4209396;28;20039;-64
2021/05/30 13:33:54;;;;;;;2.53;1.17;;;16.70;94.50;;;;;;4222780;28;20084;-64
2021/05/30 13:35:55;;;;;;;2.30;0.95;;;16.70;94.80;;;;;;4222320;28;20084;-65
2021/05/30 13:37:56;;;;;;;1.15;0.93;;;16.70;94.70;;;;;;4222632;28;20471;-62
2021/05/30 13:39:58;;;;;;;0.40;0.35;;;16.70;95.10;;;;;;4221632;28;20555;-62
2021/05/30 13:42:00;;;;;;;2.28;0.88;;;16.90;95.20;;;;;;4224136;28;20478;-63
2021/05/30 13:44:03;;;;;;;1.17;0.68;;;17.00;95.00;;;;;;4216470;28;20168;-63
2021/05/30 13:46:04;;;;;;;0.50;0.50;;;17.00;95.10;;;;;;4206574;28;20024;-63
2021/05/30 13:48:06;;;;;;;1.05;0.82;;;17.00;95.10;;;;;;4203428;28;20078;-62
2021/05/30 13:50:08;;;;;;;0.93;0.70;;;16.80;95.30;;;;;;4206033;28;20036;-63
2021/05/30 13:52:10;;;;;;;3.63;1.00;;;16.40;95.00;;;;;;4204671;28;20089;-63
2021/05/30 13:54:11;;;;;;;1.08;0.80;;;16.30;96.00;;;;;;4206832;28;20085;-63
2021/05/30 13:56:13;;;;;;;1.08;0.70;;;16.40;96.20;;;;;;4210199;28;20084;-64
2021/05/30 13:58:14;;;;;;;0.80;0.50;;;16.50;95.60;;;;;;4222869;28;20109;-63
2021/05/30 14:00:16;;;;;;;0.60;0.50;;;16.70;95.20;;;;;;4222473;28;20032;-63
2021/05/30 14:02:19;;;;;;;0.82;0.60;;;16.80;94.80;;;;;;4223086;28;20414;-63
2021/05/30 14:04:21;;;;;;;0.60;0.30;;;16.90;94.40;;;;;;4222564;28;20084;-62
2021/05/30 14:06:22;;;;;;;0.45;0.32;;;17.00;93.80;;;;;;4222463;28;20080;-62
2021/05/30 14:08:24;;;;;;;0.45;0.45;;;17.10;93.70;;;;;;4222474;28;20395;-63
2021/05/30 14:10:25;;;;;;;0.93;0.68;;;17.00;93.80;;;;;;4221995;28;20027;-63
2021/05/30 14:12:26;;;;;;;0.40;0.35;;;17.00;93.80;;;;;;4223497;28;20036;-63
2021/05/30 14:14:27;;;;;;;0.95;0.43;;;17.10;93.90;;;;;;4221967;28;20024;-64
2021/05/30 14:16:28;;;;;;;0.88;0.50;;;17.20;93.00;;;;;;4220520;28;20113;-64
2021/05/30 14:18:29;;;;;;;0.93;0.60;;;17.20;92.60;;;;;;4222084;28;20047;-64
2021/05/30 14:20:30;;;;;;;0.35;0.25;;;17.30;92.30;;;;;;4219717;28;20077;-64
2021/05/30 14:22:32;;;;;;;1.52;0.57;;;17.30;92.30;;;;;;4221963;28;20089;-62
2021/05/30 14:24:33;;;;;;;0.80;0.65;;;17.40;92.50;;;;;;4223595;28;20089;-65
2021/05/30 14:26:34;;;;;;;2.47;0.85;;;17.60;92.30;;;;;;4222659;28;20025;-63
2021/05/30 14:28:35;;;;;;;0.43;0.35;;;17.70;92.10;;;;;;4225558;28;20127;-64
2021/05/30 14:30:36;;;;;;;0.50;0.40;;;17.90;91.70;;;;;;4225674;28;20433;-64
2021/05/30 14:32:38;;;;;;;0.77;0.40;;;17.90;91.70;;;;;;4226425;28;20043;-69
2021/05/30 14:34:40;;;;;;;0.90;0.80;;;17.90;92.10;;;;;;4225836;28;20024;-66
2021/05/30 14:36:41;;;;;;;0.55;0.47;;;17.80;92.10;;;;;;4226632;28;20096;-64
2021/05/30 14:38:42;;;;;;;1.05;0.90;;;17.80;92.30;;;;;;4225363;28;20092;-63
2021/05/30 14:40:43;;;;;;;3.45;0.35;;;17.80;92.30;;;;;;4224230;28;20088;-65
2021/05/30 14:42:46;;;;;;;1.38;0.50;;;17.90;92.50;;;;;;4226641;28;20098;-66
2021/05/30 14:44:47;;;;;;;0.40;0.30;;;17.90;92.10;;;;;;4224895;28;20032;-65
2021/05/30 14:46:48;;;;;;;0.95;0.30;;;18.00;91.70;;;;;;4226752;28;20820;-64
2021/05/30 14:48:49;;;;;;;0.93;0.30;;;17.90;91.40;;;;;;4223584;28;20085;-63
2021/05/30 14:50:50;;;;;;;0.82;0.40;;;18.00;91.10;;;;;;4226486;28;20084;-70
2021/05/30 14:52:51;;;;;;;0.45;0.45;;;17.90;90.70;;;;;;4225408;28;20053;-66
2021/05/30 14:54:52;;;;;;;1.05;0.30;;;17.90;90.70;;;;;;4226531;28;20027;-65
2021/05/30 14:56:56;;;;;;;0.82;0.52;;;17.80;90.80;;;;;;4225382;28;20032;-66
2021/05/30 14:58:57;;;;;;;0.63;0.30;;;17.80;90.70;;;;;;4226353;28;20024;-65
2021/05/30 15:00:59;;;;;;;0.40;0.40;;;17.80;90.20;;;;;;4224533;28;20036;-66
2021/05/30 15:03:00;;;;;;;1.67;0.70;;;17.80;90.10;;;;;;4225611;28;20402;-67
2021/05/30 15:05:01;;;;;;;0.57;0.30;;;17.70;90.30;;;;;;4224689;28;20040;-66
2021/05/30 15:07:02;;;;;;;0.45;0.40;;;17.60;90.30;;;;;;4225627;28;20031;-68
2021/05/30 15:09:04;;;;;;;0.82;0.50;;;17.50;89.90;;;;;;4225029;28;20035;-65
2021/05/30 15:11:06;;;;;;;0.50;0.40;;;17.40;89.90;;;;;;4225853;28;20440;-66
2021/05/30 15:13:08;;;;;;;1.60;0.55;;;17.40;89.90;;;;;;4224310;28;20047;-65
2021/05/30 15:15:09;;;;;;;0.63;0.60;;;17.40;89.00;;;;;;4224404;28;20039;-66
2021/05/30 15:17:10;;;;;;;0.50;0.50;;;17.30;88.10;;;;;;4226247;28;20060;-66
2021/05/30 15:19:12;;;;;;;2.00;0.73;;;17.30;88.40;;;;;;4222717;28;20568;-66
2021/05/30 15:21:13;;;;;;;6.22;1.58;;;17.20;87.70;;;;;;4224598;28;21026;-64
2021/05/30 15:23:16;;;;;;;3.60;1.80;;;17.10;88.70;;;;;;4212901;28;20070;-65
2021/05/30 15:25:17;;;;;;;2.97;0.40;;;17.20;89.30;;;;;;4225363;28;20144;-64
2021/05/30 15:27:18;;;;;;;0.73;0.70;;;17.20;90.40;;;;;;4215391;28;20566;-64
2021/05/30 15:29:19;;;;;;;1.58;0.90;;;17.10;91.10;;;;;;4209271;28;20081;-63
2021/05/30 15:31:20;;;;;;;1.35;1.25;;;17.00;91.80;;;;;;4207853;28;20032;-66
2021/05/30 15:33:24;;;;;;;0.65;0.65;;;16.90;92.60;;;;;;4209501;28;20077;-64
2021/05/30 15:35:26;;;;;;;0.93;0.70;;;16.80;93.20;;;;;;4207892;28;20028;-64
2021/05/30 15:37:27;;;;;;;1.45;0.73;;;16.70;93.40;;;;;;4208849;28;20031;-64
2021/05/30 15:39:31;;;;;;;4.32;1.20;;;16.60;92.90;;;;;;4216510;28;20665;-64
2021/05/30 15:41:32;;;;;;;1.27;0.95;;;16.50;92.70;;;;;;4224816;28;20036;-64
2021/05/30 15:43:34;;;;;;;2.00;0.73;;;16.50;92.90;;;;;;4225075;28;20065;-64
2021/05/30 15:45:36;;;;;;;1.98;0.77;;;16.50;92.90;;;;;;4225052;28;20051;-65
2021/05/30 15:47:38;;;;;;;2.17;1.05;;;16.50;93.00;;;;;;4224996;28;20859;-64
2021/05/30 15:49:39;;;;;;;0.90;0.80;;;16.30;93.60;;;;;;4224467;28;20031;-64
2021/05/30 15:51:44;;;;;;;0.75;0.60;;;16.40;93.80;;;;;;4225476;28;20031;-64
2021/05/30 15:53:45;;;;;;;2.20;0.93;;;16.50;94.00;;;;;;4224087;28;20469;-65
2021/05/30 15:55:46;;;;;;;1.95;0.95;;;16.50;93.80;;;;;;4225194;28;20077;-66
2021/05/30 15:57:48;;;;;;;1.48;0.60;;;16.50;93.60;;;;;;4224141;28;20031;-66
2021/05/30 15:59:49;;;;;;;0.70;0.57;;;16.40;93.40;;;;;;4224634;28;20039;-65
2021/05/30 16:01:50;;;;;;;3.45;0.98;;;16.40;93.10;;;;;;4224427;28;20084;-65
2021/05/30 16:03:52;;;;;;;1.65;1.30;;;16.40;93.00;;;;;;4225379;28;20404;-66
2021/05/30 16:05:53;;;;;;;3.08;0.80;;;16.30;93.00;;;;;;4224509;28;20065;-65
2021/05/30 16:07:57;;;;;;;3.83;0.80;;;16.30;93.00;;;;;;4225045;28;20081;-66
2021/05/30 16:09:59;;;;;;;2.67;1.27;;;16.20;93.20;;;;;;4223326;28;20614;-64
2021/05/30 16:12:00;;;;;;;2.35;1.00;;;16.10;93.50;;;;;;4224701;28;20036;-65
2021/05/30 16:14:01;;;;;;;2.58;1.25;;;16.10;94.00;;;;;;4224088;28;20023;-64
2021/05/30 16:16:03;;;;;;;6.90;1.30;;;16.10;94.20;;;;;;4224594;28;20050;-66
2021/05/30 16:18:05;;;;;;;11.80;2.05;;;16.00;94.20;;;;;;4224123;28;20028;-65
2021/05/30 16:20:07;;;;;;;19.50;2.70;;;15.90;94.20;;;;;;4222601;28;20047;-65
2021/05/30 16:22:08;;;;;;;11.23;2.10;;;15.60;94.80;;;;;;4223544;28;20027;-64
2021/05/30 16:24:09;;;;;;;15.95;2.67;;;15.50;95.40;;;;;;4223353;28;20113;-64
2021/05/30 16:26:10;;;;;;;3.53;1.20;;;15.40;96.00;;;;;;4225257;28;20085;-64
2021/05/30 16:28:12;;;;;;;14.32;2.38;;;15.50;96.10;;;;;;4223590;28;20031;-63
2021/05/30 16:30:14;;;;;;;7.90;2.40;;;15.50;96.40;;;;;;4224992;28;20027;-64
2021/05/30 16:32:15;;;;;;;22.92;2.30;;;15.60;97.00;;;;;;4223810;28;20028;-65
2021/05/30 16:34:16;;;;;;;13.80;2.33;;;15.60;97.10;;;;;;4225133;28;20552;-64
2021/05/30 16:36:18;;;;;;;8.10;2.30;;;15.60;97.40;;;;;;4223488;28;20035;-64
2021/05/30 16:38:19;;;;;;;13.57;1.92;;;15.40;97.80;;;;;;4224245;28;20084;-65
2021/05/30 16:40:20;;;;;;;9.95;1.80;;;15.30;98.40;;;;;;4223332;28;20089;-64
2021/05/30 16:42:21;;;;;;;2.17;0.77;;;15.40;98.90;;;;;;4224456;28;20144;-64
2021/05/30 16:44:23;;;;;;;1.33;1.08;;;15.50;99.20;;;;;;4223463;28;20556;-66
2021/05/30 16:46:24;;;;;;;3.25;1.20;;;15.60;99.40;;;;;;4224582;28;20023;-67
2021/05/30 16:48:27;;;;;;;1.55;0.90;;;15.50;99.60;;;;;;4222135;28;20479;-67
2021/05/30 16:50:28;;;;;;;1.45;0.80;;;15.60;99.70;;;;;;4223940;28;20291;-67
2021/05/30 16:52:29;;;;;;;1.15;1.10;;;15.50;99.80;;;;;;4223488;28;20409;-65
2021/05/30 16:54:30;;;;;;;3.03;1.30;;;15.50;99.90;;;;;;4223662;28;20027;-66
2021/05/30 16:56:32;;;;;;;1.13;1.03;;;15.40;99.90;;;;;;4223863;28;20035;-64
2021/05/30 16:58:33;;;;;;;1.23;1.00;;;15.30;99.90;;;;;;4223073;28;20039;-64
2021/05/30 17:00:34;;;;;;;2.65;1.20;;;15.30;99.90;;;;;;4222776;28;20036;-66
2021/05/30 17:02:36;;;;;;;3.58;1.23;;;15.30;99.90;;;;;;4222953;28;20093;-66